createdAt,value
2022-12-13T00:01:36.696Z,-6.43
2022-12-13T00:04:07.113Z,-6.53
2022-12-13T00:06:34.883Z,-6.44
2022-12-13T00:09:02.270Z,-6.58
2022-12-13T00:11:31.656Z,-6.75
2022-12-13T00:14:02.589Z,-6.86
2022-12-13T00:16:29.646Z,-6.38
2022-12-13T00:18:58.588Z,-6.32
2022-12-13T00:21:28.982Z,-6.39
2022-12-13T00:23:56.168Z,-6.21
2022-12-13T00:26:32.864Z,-6.14
2022-12-13T00:29:03.189Z,-6.37
2022-12-13T00:34:19.502Z,-6.12
2022-12-13T00:36:48.549Z,-6.18
2022-12-13T00:39:16.888Z,-6.05
2022-12-13T00:41:44.091Z,-6.17
2022-12-13T00:44:12.407Z,-5.99
2022-12-13T00:46:40.061Z,-6.12
2022-12-13T00:49:07.563Z,-6.04
2022-12-13T00:51:36.723Z,-6.31
2022-12-13T00:54:03.481Z,-6.17
2022-12-13T00:56:32.440Z,-6.18
2022-12-13T00:58:59.931Z,-6.16
2022-12-13T01:01:31.487Z,-6.11
2022-12-13T01:04:01.104Z,-6.07
2022-12-13T01:06:44.604Z,-6.26
2022-12-13T01:09:27.553Z,-6.02
2022-12-13T01:12:01.534Z,-6.04
2022-12-13T01:14:28.976Z,-6.13
2022-12-13T01:16:58.998Z,-6.70
2022-12-13T01:19:27.401Z,-6.14
2022-12-13T01:21:55.872Z,-6.50
2022-12-13T01:24:24.857Z,-6.06
2022-12-13T01:26:53.531Z,-6.21
2022-12-13T01:29:26.031Z,-6.65
2022-12-13T01:31:54.891Z,-6.08
2022-12-13T01:34:26.336Z,-6.22
2022-12-13T01:36:58.219Z,-6.40
2022-12-13T01:39:27.152Z,-6.87
2022-12-13T01:41:59.855Z,-6.26
2022-12-13T01:44:59.341Z,-6.09
2022-12-13T01:47:29.185Z,-6.17
2022-12-13T01:49:59.665Z,-6.20
2022-12-13T01:52:28.558Z,-6.18
2022-12-13T01:55:03.283Z,-6.58
2022-12-13T01:57:33.054Z,-6.48
2022-12-13T02:00:00.093Z,-6.21
2022-12-13T02:02:28.545Z,-6.62
2022-12-13T02:05:16.618Z,-6.44
2022-12-13T02:07:45.102Z,-6.49
2022-12-13T02:10:12.695Z,-6.44
2022-12-13T02:12:40.428Z,-6.34
2022-12-13T02:15:13.663Z,-6.61
2022-12-13T02:18:09.843Z,-6.34
2022-12-13T02:21:08.846Z,-6.43
2022-12-13T02:24:31.373Z,-6.20
2022-12-13T02:27:07.622Z,-6.31
2022-12-13T02:29:55.689Z,-6.16
2022-12-13T02:32:25.176Z,-6.16
2022-12-13T02:35:00.976Z,-6.33
2022-12-13T02:37:42.310Z,-6.25
2022-12-13T02:40:27.831Z,-6.32
2022-12-13T02:43:21.297Z,-6.23
2022-12-13T02:45:51.679Z,-6.03
2022-12-13T02:48:29.609Z,-6.11
2022-12-13T02:51:03.199Z,-6.08
2022-12-13T02:53:33.859Z,-6.16
2022-12-13T02:56:00.599Z,-6.20
2022-12-13T02:58:34.953Z,-6.44
2022-12-13T03:01:28.375Z,-6.55
2022-12-13T03:04:09.530Z,-7.08
2022-12-13T03:07:00.414Z,-7.34
2022-12-13T03:09:46.584Z,-6.96
2022-12-13T03:12:45.478Z,-6.86
2022-12-13T03:15:38.782Z,-6.90
2022-12-13T03:18:15.627Z,-7.22
2022-12-13T03:20:58.883Z,-7.04
2022-12-13T03:23:27.700Z,-7.31
2022-12-13T03:26:04.403Z,-7.06
2022-12-13T03:28:31.598Z,-7.27
2022-12-13T03:30:58.448Z,-7.19
2022-12-13T03:33:25.137Z,-7.19
2022-12-13T03:35:51.959Z,-7.43
2022-12-13T03:38:22.636Z,-7.13
2022-12-13T03:40:53.336Z,-7.45
2022-12-13T03:43:21.582Z,-7.38
2022-12-13T03:45:51.396Z,-7.17
2022-12-13T03:48:22.223Z,-7.18
2022-12-13T03:50:52.530Z,-6.79
2022-12-13T03:53:33.310Z,-6.88
2022-12-13T03:56:05.651Z,-6.91
2022-12-13T03:58:38.338Z,-7.63
2022-12-13T04:01:07.320Z,-6.96
2022-12-13T04:03:34.893Z,-7.06
2022-12-13T04:06:01.538Z,-6.88
2022-12-13T04:08:28.416Z,-6.97
2022-12-13T04:13:37.049Z,-6.73
2022-12-13T04:16:03.803Z,-6.77
2022-12-13T04:18:30.647Z,-6.99
2022-12-13T04:20:57.840Z,-6.88
2022-12-13T04:23:26.377Z,-7.12
2022-12-13T04:25:53.698Z,-7.17
2022-12-13T04:28:22.639Z,-7.06
2022-12-13T04:30:54.630Z,-6.80
2022-12-13T04:33:23.223Z,-6.76
2022-12-13T04:35:50.557Z,-6.94
2022-12-13T04:38:17.614Z,-7.22
2022-12-13T04:40:47.955Z,-6.88
2022-12-13T04:43:15.549Z,-7.20
2022-12-13T04:45:42.248Z,-7.32
2022-12-13T04:48:09.980Z,-7.77
2022-12-13T04:50:38.492Z,-7.66
2022-12-13T04:53:08.051Z,-7.38
2022-12-13T04:55:37.331Z,-7.62
2022-12-13T04:58:08.891Z,-7.55
2022-12-13T05:00:36.289Z,-7.83
2022-12-13T05:03:04.014Z,-7.81
2022-12-13T05:05:32.565Z,-7.74
2022-12-13T05:07:59.028Z,-7.36
2022-12-13T05:10:37.769Z,-7.73
2022-12-13T05:13:06.046Z,-7.39
2022-12-13T05:15:34.460Z,-7.46
2022-12-13T05:18:10.478Z,-7.28
2022-12-13T05:20:41.457Z,-7.56
2022-12-13T05:23:08.792Z,-7.46
2022-12-13T05:25:37.312Z,-7.26
2022-12-13T05:28:26.832Z,-7.38
2022-12-13T05:30:55.207Z,-7.53
2022-12-13T05:33:23.399Z,-7.32
2022-12-13T05:35:53.888Z,-7.50
2022-12-13T05:38:24.290Z,-7.29
2022-12-13T05:40:51.112Z,-4.61
2022-12-13T05:43:21.473Z,-4.66
2022-12-13T05:45:50.109Z,-3.81
2022-12-13T05:48:24.600Z,-3.54
2022-12-13T05:51:10.438Z,-2.74
2022-12-13T05:53:42.782Z,-0.48
2022-12-13T05:56:11.460Z,-0.94
2022-12-13T05:58:40.556Z,-2.39
2022-12-13T06:01:12.814Z,-2.66
2022-12-13T06:03:41.152Z,-3.80
2022-12-13T06:06:10.171Z,-4.42
2022-12-13T06:08:37.341Z,-5.42
2022-12-13T06:11:10.952Z,-5.23
2022-12-13T06:13:43.500Z,-5.39
2022-12-13T06:16:22.054Z,-6.02
2022-12-13T06:19:02.788Z,-5.76
2022-12-13T06:21:43.765Z,-6.82
2022-12-13T06:24:13.197Z,-6.32
2022-12-13T06:26:39.738Z,-6.15
2022-12-13T06:29:06.298Z,-7.07
2022-12-13T06:31:32.876Z,-6.13
2022-12-13T06:34:14.673Z,-6.47
2022-12-13T06:36:42.526Z,-6.84
2022-12-13T06:39:10.605Z,-7.35
2022-12-13T06:41:38.996Z,-6.83
2022-12-13T06:44:06.982Z,-6.84
2022-12-13T06:46:34.317Z,-6.71
2022-12-13T06:49:01.467Z,-6.87
2022-12-13T06:51:32.925Z,-6.83
2022-12-13T06:54:04.103Z,-6.83
2022-12-13T06:56:31.233Z,-6.89
2022-12-13T06:59:01.676Z,-7.81
2022-12-13T07:01:36.712Z,-7.65
2022-12-13T07:04:29.931Z,-7.39
2022-12-13T07:06:54.530Z,-7.44
2022-12-13T07:09:21.100Z,-7.33
2022-12-13T07:11:52.505Z,-7.87
2022-12-13T07:14:20.092Z,-8.06
2022-12-13T07:16:48.428Z,-7.60
2022-12-13T07:19:23.925Z,-7.61
2022-12-13T07:21:52.341Z,-7.76
2022-12-13T07:24:19.524Z,-7.41
2022-12-13T07:26:47.632Z,-7.75
2022-12-13T07:29:22.623Z,-7.61
2022-12-13T07:31:50.068Z,-7.75
2022-12-13T07:34:17.818Z,-7.51
2022-12-13T07:36:44.602Z,-7.62
2022-12-13T07:39:11.701Z,-7.61
2022-12-13T07:41:39.410Z,-7.95
2022-12-13T07:44:06.108Z,-7.37
2022-12-13T07:46:35.751Z,-8.12
2022-12-13T07:49:04.636Z,-7.32
2022-12-13T07:51:34.874Z,-7.24
2022-12-13T07:54:06.754Z,-7.35
2022-12-13T07:56:34.782Z,-7.20
2022-12-13T07:59:01.439Z,-7.53
2022-12-13T08:01:32.351Z,-7.18
2022-12-13T08:03:58.896Z,-7.15
2022-12-13T08:06:25.547Z,-7.11
2022-12-13T08:08:56.425Z,-6.98
2022-12-13T08:11:23.576Z,-7.03
2022-12-13T08:13:51.439Z,-6.71
2022-12-13T08:16:26.724Z,-6.49
2022-12-13T08:19:03.002Z,-6.26
2022-12-13T08:21:54.466Z,-6.06
2022-12-13T08:24:21.714Z,-6.06
2022-12-13T08:26:48.471Z,-5.73
2022-12-13T08:29:23.109Z,-5.44
2022-12-13T08:32:01.169Z,-5.24
2022-12-13T08:34:28.185Z,-5.14
2022-12-13T08:37:02.433Z,-5.42
2022-12-13T08:39:35.852Z,-4.96
2022-12-13T08:42:19.320Z,-4.90
2022-12-13T08:44:51.689Z,-4.91
2022-12-13T08:47:26.600Z,-5.07
2022-12-13T08:49:56.127Z,-5.08
2022-12-13T08:52:31.786Z,-5.11
2022-12-13T08:54:58.637Z,-5.24
2022-12-13T08:57:25.275Z,-5.31
2022-12-13T08:59:52.076Z,-5.07
2022-12-13T09:02:19.028Z,-5.06
2022-12-13T09:04:45.902Z,-5.09
2022-12-13T09:07:13.494Z,-5.20
2022-12-13T09:09:40.618Z,-5.26
2022-12-13T09:12:10.793Z,-5.32
2022-12-13T09:14:45.580Z,-5.13
2022-12-13T09:17:24.683Z,-5.14
2022-12-13T09:19:57.814Z,-4.99
2022-12-13T09:22:33.026Z,-5.60
2022-12-13T09:25:03.191Z,-5.35
2022-12-13T09:27:39.537Z,-5.13
2022-12-13T09:30:13.099Z,-4.99
2022-12-13T09:32:49.725Z,-5.15
2022-12-13T09:35:16.842Z,-5.15
2022-12-13T09:37:46.108Z,-4.98
2022-12-13T09:40:26.014Z,-5.15
2022-12-13T09:43:12.615Z,-4.92
2022-12-13T09:45:46.635Z,-5.08
2022-12-13T09:48:22.721Z,-5.28
2022-12-13T09:50:58.352Z,-4.86
2022-12-13T09:53:39.953Z,-4.86
2022-12-13T09:56:12.072Z,-5.24
2022-12-13T09:58:38.681Z,-5.43
2022-12-13T10:01:06.379Z,-5.27
2022-12-13T10:03:33.625Z,-5.48
2022-12-13T10:06:23.356Z,-5.43
2022-12-13T10:08:57.950Z,-5.51
2022-12-13T10:11:31.771Z,-5.42
2022-12-13T10:14:14.403Z,-5.49
2022-12-13T10:16:48.857Z,-5.71
2022-12-13T10:19:33.883Z,-5.46
2022-12-13T10:22:02.996Z,-5.50
2022-12-13T10:24:47.785Z,-5.16
2022-12-13T10:27:17.665Z,-5.31
2022-12-13T10:30:01.303Z,-5.24
2022-12-13T10:32:37.667Z,-5.40
2022-12-13T10:35:34.353Z,-5.11
2022-12-13T10:38:23.644Z,-5.17
2022-12-13T10:40:58.664Z,-5.40
2022-12-13T10:43:30.456Z,-5.23
2022-12-13T10:46:03.118Z,-5.06
2022-12-13T10:48:38.873Z,-4.88
2022-12-13T10:51:07.549Z,-5.10
2022-12-13T10:53:47.009Z,-5.13
2022-12-13T10:56:23.680Z,-5.30
2022-12-13T10:59:16.659Z,-5.19
2022-12-13T11:01:44.495Z,-5.14
2022-12-13T11:04:32.587Z,-5.13
2022-12-13T11:07:02.155Z,-5.17
2022-12-13T11:09:39.167Z,-5.59
2022-12-13T11:12:16.707Z,-5.45
2022-12-13T11:14:56.416Z,-5.36
2022-12-13T11:17:26.625Z,-5.06
2022-12-13T11:19:57.556Z,-5.30
2022-12-13T11:22:31.248Z,-5.19
2022-12-13T11:25:06.464Z,-5.38
2022-12-13T11:28:37.336Z,-5.06
2022-12-13T11:31:34.901Z,-5.43
2022-12-13T11:34:23.588Z,-5.00
2022-12-13T11:36:58.451Z,-5.08
2022-12-13T11:39:35.159Z,-5.06
2022-12-13T11:42:22.519Z,-5.09
2022-12-13T11:45:23.531Z,-5.05
2022-12-13T11:48:03.490Z,-5.19
2022-12-13T11:50:37.282Z,-4.75
2022-12-13T11:53:19.188Z,-4.76
2022-12-13T11:56:04.721Z,-4.90
2022-12-13T11:59:03.638Z,-5.05
2022-12-13T12:01:48.039Z,-4.70
2022-12-13T12:04:41.878Z,-4.79
2022-12-13T12:07:34.921Z,-4.88
2022-12-13T12:10:13.821Z,-4.64
2022-12-13T12:12:46.452Z,-4.79
2022-12-13T12:15:27.681Z,-5.83
2022-12-13T12:17:56.380Z,-4.99
2022-12-13T12:20:47.666Z,-4.91
2022-12-13T12:23:46.401Z,-4.79
2022-12-13T12:26:17.803Z,-5.10
2022-12-13T12:29:22.001Z,-4.80
2022-12-13T12:32:03.855Z,-4.80
2022-12-13T12:34:45.745Z,-4.79
2022-12-13T12:37:40.494Z,-4.62
2022-12-13T12:41:15.074Z,-4.60
2022-12-13T12:43:34.692Z,-4.69
2022-12-13T12:47:09.271Z,-4.67
2022-12-13T12:49:58.554Z,-4.68
2022-12-13T12:52:42.515Z,-4.97
2022-12-13T12:55:20.102Z,-4.82
2022-12-13T12:58:02.399Z,-4.73
2022-12-13T13:00:36.972Z,-4.87
2022-12-13T13:03:23.500Z,-4.80
2022-12-13T13:06:02.485Z,-4.91
2022-12-13T13:08:53.210Z,-4.87
2022-12-13T13:11:24.363Z,-4.96
2022-12-13T13:14:01.611Z,-4.85
2022-12-13T13:16:40.675Z,-5.16
2022-12-13T13:19:25.800Z,-5.02
2022-12-13T13:21:55.287Z,-4.76
2022-12-13T13:24:32.826Z,-5.21
2022-12-13T13:27:19.375Z,-6.21
2022-12-13T13:29:46.432Z,-5.12
2022-12-13T13:32:29.353Z,-4.87
2022-12-13T13:35:32.160Z,-4.80
2022-12-13T13:38:00.892Z,-4.85
2022-12-13T13:40:30.065Z,-4.93
2022-12-13T13:43:04.490Z,-4.91
2022-12-13T13:45:50.522Z,-5.00
2022-12-13T13:49:04.667Z,-4.82
2022-12-13T13:52:16.720Z,-5.23
2022-12-13T13:55:07.355Z,-4.77
2022-12-13T13:58:12.482Z,-5.08
2022-12-13T14:01:02.000Z,-5.01
2022-12-13T14:04:10.391Z,-5.03
2022-12-13T14:07:01.043Z,-5.13
2022-12-13T14:10:14.319Z,-4.95
2022-12-13T14:13:03.748Z,-4.91
2022-12-13T14:16:08.023Z,-4.96
2022-12-13T14:19:16.798Z,-5.19
2022-12-13T14:22:10.012Z,-5.06
2022-12-13T14:25:06.030Z,-4.99
2022-12-13T14:27:50.597Z,-5.04
2022-12-13T14:30:28.272Z,-5.16
2022-12-13T14:32:57.266Z,-5.57
2022-12-13T14:35:30.255Z,-4.77
2022-12-13T14:38:02.612Z,-5.45
2022-12-13T14:40:32.674Z,-5.25
2022-12-13T14:43:00.159Z,-5.20
2022-12-13T14:45:29.591Z,-5.22
2022-12-13T14:48:03.378Z,-5.41
2022-12-13T14:50:34.959Z,-5.31
2022-12-13T14:53:04.995Z,-5.53
2022-12-13T14:55:37.654Z,-6.15
2022-12-13T14:58:17.618Z,-5.38
2022-12-13T15:00:47.753Z,-5.40
2022-12-13T15:03:24.567Z,-5.96
2022-12-13T15:06:00.486Z,-5.48
2022-12-13T15:08:27.584Z,-5.85
2022-12-13T15:10:57.436Z,-5.52
2022-12-13T15:13:29.676Z,-6.61
2022-12-13T15:16:00.577Z,-5.74
2022-12-13T15:18:30.174Z,-5.51
2022-12-13T15:21:01.740Z,-5.72
2022-12-13T15:23:48.773Z,-5.60
2022-12-13T15:26:29.176Z,-5.67
2022-12-13T15:28:59.506Z,-6.02
2022-12-13T15:31:27.965Z,-5.46
2022-12-13T15:34:01.235Z,-5.49
2022-12-13T15:36:32.100Z,-5.51
2022-12-13T15:39:02.478Z,-5.29
2022-12-13T15:41:42.516Z,-5.40
2022-12-13T15:44:22.636Z,-5.83
2022-12-13T15:46:51.551Z,-5.44
2022-12-13T15:49:30.692Z,-5.73
2022-12-13T15:52:01.938Z,-5.94
2022-12-13T15:54:28.886Z,-5.77
2022-12-13T15:57:21.617Z,-5.35
2022-12-13T15:59:48.377Z,-5.45
2022-12-13T16:02:25.497Z,-5.26
2022-12-13T16:04:52.421Z,-5.42
2022-12-13T16:07:27.512Z,-5.19
2022-12-13T16:09:57.415Z,-5.15
2022-12-13T16:12:33.742Z,-5.79
2022-12-13T16:15:20.378Z,-5.23
2022-12-13T16:18:32.561Z,-5.29
2022-12-13T16:20:59.501Z,-5.15
2022-12-13T16:23:27.654Z,-5.02
2022-12-13T16:25:55.373Z,-5.25
2022-12-13T16:28:25.936Z,-5.44
2022-12-13T16:30:54.538Z,-4.99
2022-12-13T16:33:27.384Z,-4.97
2022-12-13T16:35:55.417Z,-5.10
2022-12-13T16:38:26.572Z,-5.51
2022-12-13T16:40:56.642Z,-5.03
2022-12-13T16:43:32.789Z,-5.16
2022-12-13T16:47:15.463Z,-4.95
2022-12-13T16:48:50.913Z,-4.98
2022-12-13T16:51:18.219Z,-5.03
2022-12-13T16:53:44.962Z,-5.53
2022-12-13T16:56:14.833Z,-4.80
2022-12-13T16:58:46.210Z,-5.03
2022-12-13T17:01:22.962Z,-5.05
2022-12-13T17:03:49.501Z,-4.87
2022-12-13T17:06:22.319Z,-4.97
2022-12-13T17:08:50.486Z,-5.07
2022-12-13T17:11:18.545Z,-4.88
2022-12-13T17:13:48.181Z,-5.15
2022-12-13T17:16:15.007Z,-5.08
2022-12-13T17:18:42.541Z,-4.98
2022-12-13T17:21:10.744Z,-5.08
2022-12-13T17:23:37.620Z,-5.43
2022-12-13T17:26:07.255Z,-5.10
2022-12-13T17:28:35.082Z,-5.03
2022-12-13T17:31:07.205Z,-5.20
2022-12-13T17:33:34.646Z,-5.18
2022-12-13T17:36:03.744Z,-5.13
2022-12-13T17:38:30.709Z,-5.36
2022-12-13T17:41:00.672Z,-5.10
2022-12-13T17:43:34.294Z,-5.16
2022-12-13T17:46:13.513Z,-5.59
2022-12-13T17:48:44.677Z,-5.35
2022-12-13T17:51:14.604Z,-5.31
2022-12-13T17:53:43.433Z,-5.24
2022-12-13T17:56:15.183Z,-5.25
2022-12-13T17:58:42.549Z,-5.50
2022-12-13T18:01:24.169Z,-5.26
2022-12-13T18:03:55.858Z,-5.49
2022-12-13T18:06:24.142Z,-5.40
2022-12-13T18:08:50.771Z,-5.62
2022-12-13T18:11:35.366Z,-5.62
2022-12-13T18:14:03.431Z,-5.60
2022-12-13T18:16:36.210Z,-5.62
2022-12-13T18:19:10.885Z,-5.65
2022-12-13T18:21:38.091Z,-6.04
2022-12-13T18:24:06.699Z,-5.60
2022-12-13T18:26:35.327Z,-5.82
2022-12-13T18:29:04.364Z,-5.50
2022-12-13T18:31:31.405Z,-5.90
2022-12-13T18:33:58.463Z,-5.52
2022-12-13T18:36:25.712Z,-5.51
2022-12-13T18:38:53.052Z,-5.50
2022-12-13T18:41:23.567Z,-5.78
2022-12-13T18:43:56.045Z,-5.85
2022-12-13T18:46:26.959Z,-5.48
2022-12-13T18:48:53.705Z,-5.38
2022-12-13T18:51:21.275Z,-5.41
2022-12-13T18:53:47.907Z,-5.65
2022-12-13T18:56:19.230Z,-6.04
2022-12-13T18:58:50.235Z,-5.27
2022-12-13T19:01:18.851Z,-5.14
2022-12-13T19:03:49.496Z,-5.14
2022-12-13T19:06:27.184Z,-5.08
2022-12-13T19:09:00.241Z,-6.38
2022-12-13T19:11:29.394Z,-5.03
2022-12-13T19:13:56.716Z,-5.37
2022-12-13T19:16:27.947Z,-5.76
2022-12-13T19:18:54.856Z,-6.11
2022-12-13T19:21:25.331Z,-6.09
2022-12-13T19:23:57.444Z,-5.78
2022-12-13T19:26:26.182Z,-5.61
2022-12-13T19:28:54.252Z,-5.40
2022-12-13T19:31:24.273Z,-5.30
2022-12-13T19:33:56.843Z,-5.33
2022-12-13T19:36:23.684Z,-5.35
2022-12-13T19:38:51.201Z,-5.52
2022-12-13T19:41:18.923Z,-5.23
2022-12-13T19:43:52.310Z,-6.08
2022-12-13T19:46:20.334Z,-5.36
2022-12-13T19:48:48.306Z,-5.47
2022-12-13T19:51:14.921Z,-5.27
2022-12-13T19:53:44.237Z,-5.38
2022-12-13T19:56:13.712Z,-5.32
2022-12-13T19:58:41.515Z,-5.84
2022-12-13T20:01:09.689Z,-5.25
2022-12-13T20:03:39.328Z,-5.44
2022-12-13T20:06:08.538Z,-5.34
2022-12-13T20:08:37.856Z,-5.65
2022-12-13T20:11:10.654Z,-5.48
2022-12-13T20:13:37.813Z,-5.39
2022-12-13T20:16:06.976Z,-5.39
2022-12-13T20:18:36.251Z,-5.53
2022-12-13T20:21:12.071Z,-5.28
2022-12-13T20:23:41.448Z,-5.26
2022-12-13T20:26:18.228Z,-5.26
2022-12-13T20:28:45.636Z,-5.22
2022-12-13T20:31:15.696Z,-5.17
2022-12-13T20:33:43.486Z,-5.21
2022-12-13T20:36:25.865Z,-5.05
2022-12-13T20:38:56.537Z,-5.07
2022-12-13T20:41:25.160Z,-5.82
2022-12-13T20:43:55.809Z,-5.13
2022-12-13T20:46:22.896Z,-5.05
2022-12-13T20:48:51.477Z,-5.33
2022-12-13T20:51:24.173Z,-5.36
2022-12-13T20:53:53.756Z,-5.26
2022-12-13T20:56:34.518Z,-5.55
2022-12-13T20:59:04.602Z,-5.53
2022-12-13T21:01:35.289Z,-5.27
2022-12-13T21:04:06.374Z,-5.43
2022-12-13T21:06:36.379Z,-5.20
2022-12-13T21:09:07.025Z,-5.57
2022-12-13T21:11:40.320Z,-5.11
2022-12-13T21:14:23.109Z,-5.62
2022-12-13T21:17:03.356Z,-5.18
2022-12-13T21:19:39.147Z,-5.68
2022-12-13T21:22:10.455Z,-5.25
2022-12-13T21:24:37.357Z,-5.01
2022-12-13T21:27:05.221Z,-5.60
2022-12-13T21:29:32.972Z,-5.23
2022-12-13T21:32:02.505Z,-5.25
2022-12-13T21:34:29.291Z,-5.28
2022-12-13T21:36:55.878Z,-5.36
2022-12-13T21:39:29.452Z,-5.19
2022-12-13T21:41:56.480Z,-5.40
2022-12-13T21:44:24.773Z,-5.55
2022-12-13T21:49:41.728Z,-5.18
2022-12-13T21:52:08.921Z,-5.13
2022-12-13T21:54:35.635Z,-5.26
2022-12-13T21:57:21.838Z,-5.42
2022-12-13T21:59:49.615Z,-5.45
2022-12-13T22:02:19.599Z,-5.47
2022-12-13T22:05:00.089Z,-5.16
2022-12-13T22:07:34.634Z,-6.61
2022-12-13T22:10:04.887Z,-5.17
2022-12-13T22:12:41.290Z,-5.05
2022-12-13T22:15:10.611Z,-5.01
2022-12-13T22:17:39.676Z,-5.19
2022-12-13T22:20:11.625Z,-4.85
2022-12-13T22:22:39.709Z,-4.88
2022-12-13T22:25:07.442Z,-4.83
2022-12-13T22:27:34.536Z,-4.65
2022-12-13T22:30:04.305Z,-4.65
2022-12-13T22:32:32.512Z,-4.74
2022-12-13T22:34:59.282Z,-5.06
2022-12-13T22:37:26.819Z,-4.91
2022-12-13T22:39:53.405Z,-5.06
2022-12-13T22:42:23.326Z,-4.93
2022-12-13T22:44:49.857Z,-5.43
2022-12-13T22:47:16.573Z,-5.17
2022-12-13T22:49:43.642Z,-5.42
2022-12-13T22:52:10.305Z,-4.97
2022-12-13T22:54:36.845Z,-5.08
2022-12-13T22:57:03.994Z,-4.59
2022-12-13T22:59:38.078Z,-4.72
2022-12-13T23:02:13.668Z,-4.88
2022-12-13T23:04:40.696Z,-4.67
2022-12-13T23:07:09.871Z,-5.44
2022-12-13T23:09:42.217Z,-4.58
2022-12-13T23:12:33.527Z,-4.61
2022-12-13T23:15:02.603Z,-4.93
2022-12-13T23:17:29.887Z,-4.89
2022-12-13T23:19:58.653Z,-5.32
2022-12-13T23:22:30.373Z,-4.78
2022-12-13T23:24:57.499Z,-4.60
2022-12-13T23:27:27.482Z,-4.88
2022-12-13T23:29:56.248Z,-4.74
2022-12-13T23:32:25.925Z,-4.61
2022-12-13T23:34:57.081Z,-4.64
2022-12-13T23:37:25.554Z,-4.67
2022-12-13T23:39:54.684Z,-4.69
2022-12-13T23:42:21.737Z,-4.83
2022-12-13T23:44:51.677Z,-4.75
2022-12-13T23:47:18.505Z,-4.47
2022-12-13T23:49:45.157Z,-4.60
2022-12-13T23:52:14.871Z,-4.74
2022-12-13T23:54:42.627Z,-5.12
2022-12-13T23:57:12.165Z,-4.67
2022-12-13T23:59:38.924Z,-4.77
